createdAt,value
2023-04-03T00:01:07.355Z,2.10
2023-04-03T00:03:34.671Z,2.27
2023-04-03T00:06:03.816Z,2.00
2023-04-03T00:08:33.658Z,1.90
2023-04-03T00:11:00.405Z,1.80
2023-04-03T00:13:27.207Z,2.07
2023-04-03T00:15:54.139Z,2.00
2023-04-03T00:18:21.147Z,2.10
2023-04-03T00:20:48.611Z,1.80
2023-04-03T00:23:15.869Z,1.87
2023-04-03T00:25:43.214Z,2.00
2023-04-03T00:28:09.986Z,2.00
2023-04-03T00:30:37.089Z,1.83
2023-04-03T00:33:04.180Z,1.90
2023-04-03T00:35:31.380Z,2.13
2023-04-03T00:37:58.854Z,2.20
2023-04-03T00:40:27.650Z,2.60
2023-04-03T00:43:00.164Z,2.80
2023-04-03T00:45:38.524Z,2.30
2023-04-03T00:48:08.904Z,2.30
2023-04-03T00:50:40.469Z,3.70
2023-04-03T00:53:19.861Z,2.50
2023-04-03T00:55:49.359Z,2.70
2023-04-03T00:58:20.787Z,3.10
2023-04-03T01:00:57.106Z,2.67
2023-04-03T01:03:24.687Z,2.73
2023-04-03T01:05:52.214Z,2.73
2023-04-03T01:08:19.028Z,2.47
2023-04-03T01:10:45.942Z,2.57
2023-04-03T01:13:30.891Z,2.30
2023-04-03T01:16:01.169Z,2.20
2023-04-03T01:18:28.093Z,2.17
2023-04-03T01:21:25.454Z,2.50
2023-04-03T01:24:11.516Z,2.10
2023-04-03T01:26:38.270Z,2.63
2023-04-03T01:29:05.369Z,1.93
2023-04-03T01:31:56.849Z,2.27
2023-04-03T01:34:25.014Z,1.77
2023-04-03T01:36:53.017Z,2.27
2023-04-03T01:39:20.988Z,1.90
2023-04-03T01:41:48.619Z,2.30
2023-04-03T01:44:15.652Z,2.07
2023-04-03T01:46:43.332Z,2.00
2023-04-03T01:49:10.672Z,2.40
2023-04-03T01:51:37.460Z,2.47
2023-04-03T01:54:04.910Z,2.13
2023-04-03T01:56:31.938Z,2.20
2023-04-03T01:58:58.739Z,2.73
2023-04-03T02:01:26.997Z,2.27
2023-04-03T02:03:53.959Z,1.90
2023-04-03T02:06:20.762Z,2.03
2023-04-03T02:08:47.508Z,2.70
2023-04-03T02:11:14.249Z,2.40
2023-04-03T02:13:41.180Z,2.40
2023-04-03T02:16:10.888Z,3.77
2023-04-03T02:18:39.015Z,3.20
2023-04-03T02:21:05.811Z,2.27
2023-04-03T02:23:32.777Z,2.37
2023-04-03T02:26:12.600Z,3.00
2023-04-03T02:28:40.679Z,2.83
2023-04-03T02:31:08.446Z,2.70
2023-04-03T02:33:37.556Z,2.70
2023-04-03T02:36:06.823Z,2.40
2023-04-03T02:38:34.258Z,2.40
2023-04-03T02:41:04.353Z,2.60
2023-04-03T02:43:31.152Z,2.40
2023-04-03T02:45:57.940Z,2.10
2023-04-03T02:48:25.559Z,2.70
2023-04-03T02:50:52.579Z,2.60
2023-04-03T02:53:20.326Z,2.50
2023-04-03T02:55:47.425Z,2.87
2023-04-03T02:58:14.224Z,2.47
2023-04-03T03:00:41.439Z,2.60
2023-04-03T03:03:08.336Z,3.17
2023-04-03T03:05:35.558Z,3.10
2023-04-03T03:08:02.313Z,2.80
2023-04-03T03:10:29.036Z,2.17
2023-04-03T03:12:55.816Z,2.97
2023-04-03T03:15:22.666Z,2.40
2023-04-03T03:17:49.409Z,2.90
2023-04-03T03:20:16.380Z,2.27
2023-04-03T03:22:43.236Z,2.90
2023-04-03T03:25:10.382Z,2.90
2023-04-03T03:27:37.202Z,3.10
2023-04-03T03:30:05.515Z,3.00
2023-04-03T03:32:32.403Z,2.70
2023-04-03T03:34:59.166Z,2.90
2023-04-03T03:37:25.864Z,3.00
2023-04-03T03:39:52.590Z,3.80
2023-04-03T03:42:19.334Z,2.60
2023-04-03T03:44:46.301Z,3.30
2023-04-03T03:47:13.021Z,3.10
2023-04-03T03:49:39.768Z,3.63
2023-04-03T03:52:06.636Z,3.37
2023-04-03T03:54:33.326Z,3.53
2023-04-03T03:57:00.504Z,3.30
2023-04-03T03:59:27.273Z,3.63
2023-04-03T04:01:54.010Z,3.70
2023-04-03T04:04:21.061Z,3.57
2023-04-03T04:06:47.894Z,4.97
2023-04-03T04:09:14.607Z,4.47
2023-04-03T04:11:41.481Z,3.70
2023-04-03T04:14:08.692Z,3.20
2023-04-03T04:16:35.522Z,3.97
2023-04-03T04:19:02.290Z,4.10
2023-04-03T04:21:29.063Z,4.30
2023-04-03T04:23:55.868Z,4.47
2023-04-03T04:26:22.667Z,4.60
2023-04-03T04:28:49.421Z,4.10
2023-04-03T04:31:16.189Z,4.10
2023-04-03T04:33:42.911Z,4.07
2023-04-03T04:36:09.776Z,3.63
2023-04-03T04:38:36.946Z,4.27
2023-04-03T04:41:03.635Z,4.43
2023-04-03T04:43:30.609Z,4.37
2023-04-03T04:46:13.041Z,4.00
2023-04-03T04:48:39.855Z,4.57
2023-04-03T04:51:06.960Z,4.43
2023-04-03T04:53:33.950Z,5.30
2023-04-03T04:56:00.735Z,4.43
2023-04-03T04:58:27.630Z,5.10
2023-04-03T05:01:07.525Z,5.00
2023-04-03T05:03:34.323Z,4.50
2023-04-03T05:06:01.502Z,5.73
2023-04-03T05:08:28.307Z,5.23
2023-04-03T05:10:56.300Z,5.17
2023-04-03T05:13:23.448Z,4.17
2023-04-03T05:15:50.317Z,4.87
2023-04-03T05:18:17.147Z,4.73
2023-04-03T05:20:44.366Z,4.20
2023-04-03T05:23:13.286Z,5.00
2023-04-03T05:25:52.644Z,4.10
2023-04-03T05:28:23.798Z,4.13
2023-04-03T05:31:01.316Z,4.10
2023-04-03T05:36:34.237Z,4.70
2023-04-03T05:39:26.692Z,4.20
2023-04-03T05:41:56.854Z,4.53
2023-04-03T05:44:23.680Z,3.90
2023-04-03T05:46:50.387Z,4.20
2023-04-03T05:49:17.111Z,3.67
2023-04-03T05:51:45.778Z,4.33
2023-04-03T05:54:20.812Z,4.50
2023-04-03T05:56:47.656Z,5.63
2023-04-03T05:59:14.444Z,5.33
2023-04-03T06:01:41.547Z,5.60
2023-04-03T06:04:10.001Z,5.13
2023-04-03T06:06:55.609Z,4.87
2023-04-03T06:09:25.897Z,4.63
2023-04-03T06:11:53.493Z,3.97
2023-04-03T06:14:21.038Z,4.10
2023-04-03T06:16:48.235Z,3.43
2023-04-03T06:19:15.019Z,4.73
2023-04-03T06:21:41.894Z,3.83
2023-04-03T06:24:08.957Z,3.70
2023-04-03T06:26:36.045Z,6.20
2023-04-03T06:29:03.425Z,4.40
2023-04-03T06:31:30.851Z,3.70
2023-04-03T06:33:57.871Z,3.07
2023-04-03T06:36:25.169Z,3.50
2023-04-03T06:38:52.004Z,3.90
2023-04-03T06:41:18.725Z,3.50
2023-04-03T06:43:45.832Z,3.37
2023-04-03T06:46:21.543Z,2.87
2023-04-03T06:48:49.636Z,2.87
2023-04-03T06:51:29.102Z,2.90
2023-04-03T06:53:59.651Z,2.90
2023-04-03T06:56:27.794Z,3.13
2023-04-03T06:58:58.338Z,2.90
2023-04-03T07:01:28.842Z,2.87
2023-04-03T07:03:56.769Z,3.33
2023-04-03T07:06:23.611Z,2.20
2023-04-03T07:08:50.396Z,2.80
2023-04-03T07:11:17.860Z,3.23
2023-04-03T07:13:44.814Z,3.90
2023-04-03T07:16:11.984Z,2.83
2023-04-03T07:18:38.872Z,3.20
2023-04-03T07:21:05.753Z,2.93
2023-04-03T07:23:32.960Z,2.40
2023-04-03T07:26:00.214Z,3.70
2023-04-03T07:28:27.102Z,2.53
2023-04-03T07:31:13.033Z,2.60
2023-04-03T07:33:40.289Z,2.77
2023-04-03T07:36:08.776Z,3.60
2023-04-03T07:38:37.552Z,2.93
2023-04-03T07:41:05.545Z,2.57
2023-04-03T07:43:32.382Z,3.27
2023-04-03T07:46:00.262Z,3.00
2023-04-03T07:48:27.727Z,2.87
2023-04-03T07:50:54.641Z,2.80
2023-04-03T07:53:21.687Z,3.10
2023-04-03T07:55:52.431Z,2.80
2023-04-03T07:58:20.359Z,2.90
2023-04-03T08:00:48.518Z,3.20
2023-04-03T08:03:19.840Z,3.00
2023-04-03T08:05:49.806Z,3.17
2023-04-03T08:08:23.374Z,2.80
2023-04-03T08:10:55.071Z,2.57
2023-04-03T08:13:23.360Z,2.40
2023-04-03T08:15:50.247Z,3.07
2023-04-03T08:18:17.568Z,2.10
2023-04-03T08:20:44.482Z,2.50
2023-04-03T08:23:12.172Z,2.60
2023-04-03T08:25:41.816Z,2.50
2023-04-03T08:28:10.255Z,2.60
2023-04-03T08:30:37.285Z,3.23
2023-04-03T08:33:05.120Z,2.90
2023-04-03T08:35:31.920Z,2.73
2023-04-03T08:37:59.085Z,2.53
2023-04-03T08:40:26.049Z,2.47
2023-04-03T08:42:57.144Z,2.77
2023-04-03T08:45:43.197Z,2.50
2023-04-03T08:48:37.263Z,2.53
2023-04-03T08:51:16.052Z,2.80
2023-04-03T08:54:05.624Z,2.83
2023-04-03T08:56:37.883Z,2.93
2023-04-03T08:59:20.664Z,2.50
2023-04-03T09:01:48.209Z,2.37
2023-04-03T09:04:20.815Z,2.93
2023-04-03T09:06:56.580Z,2.23
2023-04-03T09:09:36.853Z,3.03
2023-04-03T09:12:27.749Z,2.40
2023-04-03T09:15:31.294Z,2.60
2023-04-03T09:18:31.062Z,1.90
2023-04-03T09:21:26.198Z,2.50
2023-04-03T09:23:58.943Z,2.57
2023-04-03T09:26:36.920Z,2.10
2023-04-03T09:29:09.298Z,2.07
2023-04-03T09:31:43.770Z,1.87
2023-04-03T09:34:27.236Z,1.97
2023-04-03T09:36:58.645Z,2.10
2023-04-03T09:39:30.826Z,2.17
2023-04-03T09:42:05.386Z,2.37
2023-04-03T09:44:39.140Z,1.80
2023-04-03T09:47:34.112Z,2.73
2023-04-03T09:50:15.880Z,2.33
2023-04-03T09:52:45.438Z,2.13
2023-04-03T09:55:18.439Z,2.27
2023-04-03T09:57:46.902Z,2.00
2023-04-03T10:00:32.587Z,2.00
2023-04-03T10:03:00.295Z,1.87
2023-04-03T10:05:41.497Z,2.03
2023-04-03T10:08:33.194Z,1.70
2023-04-03T10:11:19.779Z,2.13
2023-04-03T10:14:03.888Z,1.60
2023-04-03T10:16:51.051Z,2.10
2023-04-03T10:19:31.242Z,2.10
2023-04-03T10:22:15.622Z,1.70
2023-04-03T10:25:02.804Z,1.80
2023-04-03T10:27:48.053Z,2.30
2023-04-03T10:30:25.934Z,2.17
2023-04-03T10:33:37.729Z,2.20
2023-04-03T10:36:14.152Z,1.90
2023-04-03T10:39:18.127Z,2.03
2023-04-03T10:42:23.716Z,1.93
2023-04-03T10:45:18.981Z,1.63
2023-04-03T10:48:12.797Z,1.80
2023-04-03T10:51:10.523Z,1.80
2023-04-03T10:53:55.721Z,1.70
2023-04-03T10:56:42.404Z,1.73
2023-04-03T10:59:33.929Z,1.83
2023-04-03T11:02:23.628Z,3.30
2023-04-03T11:04:58.250Z,1.80
2023-04-03T11:07:33.964Z,1.80
2023-04-03T11:10:20.281Z,1.80
2023-04-03T11:13:02.536Z,2.00
2023-04-03T11:15:34.114Z,2.03
2023-04-03T11:18:29.805Z,2.03
2023-04-03T11:21:13.732Z,1.93
2023-04-03T11:23:49.684Z,1.80
2023-04-03T11:26:26.377Z,1.90
2023-04-03T11:29:11.249Z,1.87
2023-04-03T11:32:17.495Z,1.60
2023-04-03T11:34:51.049Z,1.57
2023-04-03T11:37:40.980Z,1.90
2023-04-03T11:40:27.480Z,1.70
2023-04-03T11:43:07.567Z,1.50
2023-04-03T11:46:07.409Z,2.23
2023-04-03T11:48:36.819Z,1.63
2023-04-03T11:51:29.060Z,1.77
2023-04-03T11:54:38.569Z,1.67
2023-04-03T11:58:01.990Z,1.60
2023-04-03T12:00:50.884Z,1.50
2023-04-03T12:03:26.536Z,1.40
2023-04-03T12:06:07.021Z,1.53
2023-04-03T12:08:33.778Z,1.57
2023-04-03T12:11:09.875Z,1.57
2023-04-03T12:13:56.840Z,1.57
2023-04-03T12:16:38.723Z,1.83
2023-04-03T12:19:41.213Z,1.20
2023-04-03T12:22:13.694Z,1.77
2023-04-03T12:24:45.151Z,1.60
2023-04-03T12:27:35.658Z,1.20
2023-04-03T12:30:05.810Z,1.27
2023-04-03T12:33:02.038Z,1.87
2023-04-03T12:35:55.073Z,1.83
2023-04-03T12:38:49.927Z,1.37
2023-04-03T12:41:39.405Z,1.47
2023-04-03T12:44:43.065Z,1.40
2023-04-03T12:47:25.498Z,1.30
2023-04-03T12:49:54.178Z,1.13
2023-04-03T12:52:51.384Z,1.47
2023-04-03T12:55:21.764Z,1.30
2023-04-03T12:57:49.051Z,1.10
2023-04-03T13:00:34.189Z,1.20
2023-04-03T13:03:04.399Z,1.10
2023-04-03T13:05:36.501Z,1.23
2023-04-03T13:08:16.835Z,1.10
2023-04-03T13:11:11.761Z,1.40
2023-04-03T13:13:39.827Z,1.27
2023-04-03T13:16:18.487Z,1.37
2023-04-03T13:18:55.226Z,1.10
2023-04-03T13:21:28.812Z,1.10
2023-04-03T13:24:14.761Z,1.23
2023-04-03T13:26:43.593Z,1.00
2023-04-03T13:29:31.724Z,1.40
2023-04-03T13:32:02.332Z,1.73
2023-04-03T13:34:39.386Z,1.30
2023-04-03T13:37:06.366Z,1.50
2023-04-03T13:39:37.938Z,1.30
2023-04-03T13:42:27.697Z,1.33
2023-04-03T13:45:29.519Z,1.17
2023-04-03T13:48:24.070Z,1.00
2023-04-03T13:51:29.507Z,1.30
2023-04-03T13:54:02.206Z,1.13
2023-04-03T13:56:39.298Z,1.37
2023-04-03T13:59:12.467Z,1.70
2023-04-03T14:01:51.475Z,1.03
2023-04-03T14:04:26.645Z,1.27
2023-04-03T14:06:54.377Z,1.30
2023-04-03T14:09:24.455Z,1.50
2023-04-03T14:11:58.166Z,1.20
2023-04-03T14:14:32.231Z,1.43
2023-04-03T14:17:03.844Z,1.23
2023-04-03T14:19:34.729Z,1.17
2023-04-03T14:22:14.043Z,1.50
2023-04-03T14:24:41.240Z,1.97
2023-04-03T14:27:27.740Z,1.53
2023-04-03T14:29:58.043Z,1.10
2023-04-03T14:32:28.186Z,1.00
2023-04-03T14:34:56.224Z,1.30
2023-04-03T14:37:27.504Z,1.20
2023-04-03T14:39:58.122Z,1.10
2023-04-03T14:42:32.215Z,0.90
2023-04-03T14:45:01.147Z,1.20
2023-04-03T14:47:32.374Z,1.23
2023-04-03T14:50:02.398Z,1.43
2023-04-03T14:52:37.022Z,1.20
2023-04-03T14:55:07.115Z,0.90
2023-04-03T14:57:35.449Z,1.07
2023-04-03T15:00:05.119Z,1.00
2023-04-03T15:02:34.601Z,1.33
2023-04-03T15:05:05.966Z,1.30
2023-04-03T15:07:37.713Z,1.10
2023-04-03T15:10:27.871Z,1.43
2023-04-03T15:12:55.604Z,1.43
2023-04-03T15:15:25.000Z,1.10
2023-04-03T15:17:56.159Z,1.30
2023-04-03T15:20:28.899Z,0.93
2023-04-03T15:22:57.678Z,1.07
2023-04-03T15:25:26.194Z,1.53
2023-04-03T15:27:58.046Z,1.17
2023-04-03T15:30:25.294Z,1.77
2023-04-03T15:32:52.493Z,1.50
2023-04-03T15:35:19.690Z,1.40
2023-04-03T15:37:46.457Z,1.30
2023-04-03T15:40:15.064Z,1.40
2023-04-03T15:42:41.847Z,2.70
2023-04-03T15:45:09.966Z,1.57
2023-04-03T15:47:37.144Z,1.33
2023-04-03T15:50:07.701Z,1.30
2023-04-03T15:52:35.655Z,1.57
2023-04-03T15:55:02.950Z,1.43
2023-04-03T16:00:01.599Z,1.67
2023-04-03T16:02:28.756Z,1.50
2023-04-03T16:04:56.305Z,1.10
2023-04-03T16:07:23.040Z,1.40
2023-04-03T16:09:49.808Z,1.30
2023-04-03T16:12:16.548Z,1.30
2023-04-03T16:14:43.311Z,1.60
2023-04-03T16:17:10.038Z,1.80
2023-04-03T16:19:37.045Z,1.30
2023-04-03T16:22:03.947Z,1.40
2023-04-03T16:24:30.815Z,1.93
2023-04-03T16:26:57.754Z,1.30
2023-04-03T16:29:24.566Z,1.30
2023-04-03T16:31:52.814Z,1.70
2023-04-03T16:34:19.703Z,1.13
2023-04-03T16:36:46.469Z,2.00
2023-04-03T16:39:13.254Z,1.77
2023-04-03T16:41:40.048Z,1.87
2023-04-03T16:44:08.413Z,1.53
2023-04-03T16:46:35.737Z,1.80
2023-04-03T16:49:02.595Z,2.10
2023-04-03T16:51:29.449Z,2.00
2023-04-03T16:53:56.507Z,1.40
2023-04-03T16:56:23.260Z,1.80
2023-04-03T16:58:50.312Z,1.30
2023-04-03T17:01:20.908Z,1.90
2023-04-03T17:03:48.974Z,1.80
2023-04-03T17:06:24.172Z,2.27
2023-04-03T17:08:53.196Z,1.80
2023-04-03T17:11:21.883Z,1.30
2023-04-03T17:13:49.004Z,1.97
2023-04-03T17:16:17.558Z,1.60
2023-04-03T17:18:46.625Z,1.10
2023-04-03T17:21:14.346Z,1.53
2023-04-03T17:23:45.411Z,1.40
2023-04-03T17:26:12.411Z,1.70
2023-04-03T17:28:40.722Z,1.60
2023-04-03T17:31:08.451Z,1.50
2023-04-03T17:33:35.989Z,1.37
2023-04-03T17:36:05.690Z,1.27
2023-04-03T17:38:34.189Z,1.10
2023-04-03T17:41:05.733Z,1.17
2023-04-03T17:43:33.387Z,1.60
2023-04-03T17:46:10.073Z,1.60
2023-04-03T17:48:40.248Z,1.20
2023-04-03T17:51:13.959Z,1.43
2023-04-03T17:53:41.159Z,1.40
2023-04-03T17:56:11.205Z,1.57
2023-04-03T17:58:38.217Z,1.30
2023-04-03T18:01:27.464Z,1.40
2023-04-03T18:03:57.328Z,1.20
2023-04-03T18:06:34.042Z,1.60
2023-04-03T18:09:14.551Z,1.37
2023-04-03T18:11:42.218Z,1.37
2023-04-03T18:14:10.514Z,1.50
2023-04-03T18:16:37.511Z,1.70
2023-04-03T18:21:36.556Z,1.80
2023-04-03T18:24:06.638Z,1.90
2023-04-03T18:26:34.190Z,1.47
2023-04-03T18:29:05.749Z,1.47
2023-04-03T18:31:35.458Z,1.47
2023-04-03T18:34:02.296Z,1.60
2023-04-03T18:36:29.414Z,1.60
2023-04-03T18:38:56.476Z,2.00
2023-04-03T18:41:31.254Z,1.43
2023-04-03T18:44:01.414Z,1.70
2023-04-03T18:46:28.296Z,1.63
2023-04-03T18:48:56.011Z,1.40
2023-04-03T18:51:22.934Z,1.60
2023-04-03T18:53:49.782Z,1.40
2023-04-03T18:56:16.549Z,1.70
2023-04-03T18:58:43.434Z,1.83
2023-04-03T19:01:10.610Z,1.47
2023-04-03T19:03:37.926Z,1.50
2023-04-03T19:06:05.856Z,1.50
2023-04-03T19:08:33.648Z,1.90
2023-04-03T19:11:00.574Z,1.90
2023-04-03T19:13:28.125Z,1.33
2023-04-03T19:15:58.780Z,1.80
2023-04-03T19:18:27.453Z,2.00
2023-04-03T19:20:59.017Z,1.83
2023-04-03T19:23:26.640Z,1.83
2023-04-03T19:26:07.468Z,1.70
2023-04-03T19:28:34.707Z,1.90
2023-04-03T19:31:02.252Z,1.87
2023-04-03T19:33:29.059Z,1.87
2023-04-03T19:35:56.441Z,1.80
2023-04-03T19:38:23.203Z,1.90
2023-04-03T19:40:50.002Z,1.90
2023-04-03T19:43:17.326Z,2.13
2023-04-03T19:45:46.309Z,2.40
2023-04-03T19:48:13.518Z,2.20
2023-04-03T19:50:40.752Z,2.00
2023-04-03T19:53:09.220Z,1.87
2023-04-03T19:55:38.036Z,1.60
2023-04-03T19:58:05.004Z,2.00
2023-04-03T20:00:32.339Z,2.20
2023-04-03T20:02:59.211Z,2.03
2023-04-03T20:05:26.175Z,1.80
2023-04-03T20:07:52.924Z,1.87
2023-04-03T20:10:20.195Z,1.93
2023-04-03T20:12:46.988Z,2.17
2023-04-03T20:15:14.106Z,1.70
2023-04-03T20:17:41.261Z,1.90
2023-04-03T20:20:09.337Z,1.97
2023-04-03T20:22:38.829Z,2.30
2023-04-03T20:25:09.608Z,2.07
2023-04-03T20:27:36.759Z,1.87
2023-04-03T20:30:08.751Z,1.80
2023-04-03T20:32:35.872Z,1.50
2023-04-03T20:35:04.358Z,2.10
2023-04-03T20:37:32.538Z,2.17
2023-04-03T20:39:59.301Z,1.53
2023-04-03T20:42:26.133Z,1.90
2023-04-03T20:44:52.954Z,2.13
2023-04-03T20:47:19.868Z,2.53
2023-04-03T20:49:46.683Z,2.40
2023-04-03T20:52:13.442Z,2.33
2023-04-03T20:54:40.758Z,2.03
2023-04-03T20:57:07.573Z,1.53
2023-04-03T20:59:35.034Z,1.70
2023-04-03T21:02:01.873Z,1.83
2023-04-03T21:04:42.178Z,2.00
2023-04-03T21:08:05.189Z,2.03
2023-04-03T21:11:31.540Z,1.80
2023-04-03T21:14:55.149Z,2.03
2023-04-03T21:17:21.747Z,2.13
2023-04-03T21:19:48.811Z,1.90
2023-04-03T21:22:16.165Z,2.03
2023-04-03T21:24:44.353Z,2.70
2023-04-03T21:27:11.501Z,2.30
2023-04-03T21:29:38.738Z,1.73
2023-04-03T21:32:05.824Z,1.60
2023-04-03T21:34:33.133Z,1.73
2023-04-03T21:37:06.073Z,1.77
2023-04-03T21:39:33.311Z,1.87
2023-04-03T21:42:00.599Z,1.83
2023-04-03T21:44:30.795Z,1.63
2023-04-03T21:46:57.811Z,2.10
2023-04-03T21:49:25.706Z,2.03
2023-04-03T21:51:52.657Z,2.67
2023-04-03T21:54:20.647Z,2.10
2023-04-03T21:56:48.299Z,2.27
2023-04-03T21:59:15.713Z,2.30
2023-04-03T22:01:43.110Z,1.90
2023-04-03T22:04:10.014Z,2.23
2023-04-03T22:06:37.854Z,1.80
2023-04-03T22:09:05.150Z,2.47
2023-04-03T22:11:32.180Z,2.17
2023-04-03T22:13:59.772Z,2.60
2023-04-03T22:16:27.385Z,2.10
2023-04-03T22:18:54.832Z,1.93
2023-04-03T22:21:22.000Z,1.87
2023-04-03T22:23:48.906Z,2.30
2023-04-03T22:26:16.061Z,1.70
2023-04-03T22:28:45.688Z,1.80
2023-04-03T22:31:14.043Z,2.33
2023-04-03T22:33:43.824Z,1.83
2023-04-03T22:36:12.928Z,2.00
2023-04-03T22:38:43.669Z,2.30
2023-04-03T22:41:10.829Z,2.00
2023-04-03T22:43:39.232Z,2.50
2023-04-03T22:46:08.699Z,1.90
2023-04-03T22:48:37.088Z,2.33
2023-04-03T22:51:07.533Z,2.03
2023-04-03T22:53:35.870Z,1.40
2023-04-03T22:56:08.324Z,1.70
2023-04-03T22:58:35.180Z,1.80
2023-04-03T23:01:13.880Z,1.60
2023-04-03T23:03:42.569Z,1.80
2023-04-03T23:06:10.965Z,1.90
2023-04-03T23:08:38.533Z,2.07
2023-04-03T23:11:07.129Z,1.90
2023-04-03T23:13:34.100Z,1.90
2023-04-03T23:16:02.829Z,2.30
2023-04-03T23:18:31.865Z,1.93
2023-04-03T23:21:03.697Z,2.13
2023-04-03T23:23:31.014Z,1.80
2023-04-03T23:26:01.393Z,2.43
2023-04-03T23:28:28.980Z,2.03
2023-04-03T23:31:07.048Z,1.80
2023-04-03T23:36:17.669Z,1.73
2023-04-03T23:38:44.553Z,2.30
2023-04-03T23:41:11.382Z,1.60
2023-04-03T23:43:39.584Z,2.00
2023-04-03T23:46:06.364Z,2.03
2023-04-03T23:48:33.110Z,2.27
2023-04-03T23:50:59.809Z,1.93
2023-04-03T23:53:27.151Z,1.77
2023-04-03T23:55:53.880Z,2.60
2023-04-03T23:58:20.735Z,2.10
